KUKT/UKT METAR and TAF weather

Enter ICAO airport designator
Station Type Date Time Source
KUKT METAR 2020/04/03 06:35 UTC NOAA

KUKT 030635Z AUTO 28008G17KT 10SM CLR 08/M05 A2968 RMK A01


Station Type Date Time Source
KUKT Decoded METAR 2020/04/03 06:35 UTC NOAA

Quakertown, Quakertown Airport, PA, United States (KUKT) 40-26-06N 075-22-54W
Apr 03, 2020 - 02:35 AM EDT / 2020.04.03 0635 UTC
Wind: from the W (280 degrees) at 9 MPH (8 KT) gusting to 20 MPH (17 KT):0
Visibility: 10 mile(s):0
Sky conditions: clear
Temperature: 46 F (8 C)
Dew Point: 23 F (-5 C)
Relative Humidity: 39%
Pressure (altimeter): 29.68 in. Hg (1005 hPa)
ob: KUKT 030635Z AUTO 28008G17KT 10SM CLR 08/M05 A2968 RMK A01
cycle: 6

Station Type Date Time Source
KUKT TAF UTC NOAA

Error!

Example: see airport list